createdAt,value
2018-03-15T00:00:14.399Z,5.20
2018-03-15T00:01:03.192Z,5.16
2018-03-15T00:02:00.792Z,4.78
2018-03-15T00:02:49.836Z,4.45
2018-03-15T00:03:38.940Z,4.38
2018-03-15T00:04:35.602Z,4.47
2018-03-15T00:05:24.656Z,4.44
2018-03-15T00:06:13.703Z,4.46
2018-03-15T00:07:02.775Z,4.53
2018-03-15T00:07:51.820Z,4.54
2018-03-15T00:08:40.875Z,4.57
2018-03-15T00:09:29.924Z,4.66
2018-03-15T00:10:19.023Z,4.67
2018-03-15T00:11:08.054Z,4.54
2018-03-15T00:11:57.184Z,4.44
2018-03-15T00:12:46.231Z,4.50
2018-03-15T00:13:35.281Z,4.56
2018-03-15T00:14:24.328Z,4.61
2018-03-15T00:15:13.748Z,4.67
2018-03-15T00:16:02.800Z,4.59
2018-03-15T00:16:51.845Z,4.39
2018-03-15T00:17:40.891Z,4.28
2018-03-15T00:18:29.982Z,4.18
2018-03-15T00:19:19.090Z,4.30
2018-03-15T00:20:08.139Z,4.41
2018-03-15T00:20:57.185Z,4.50
2018-03-15T00:21:46.242Z,4.59
2018-03-15T00:22:35.281Z,4.44
2018-03-15T00:23:24.323Z,4.28
2018-03-15T00:24:13.365Z,4.09
2018-03-15T00:25:02.500Z,4.02
2018-03-15T00:25:51.545Z,4.05
2018-03-15T00:26:40.591Z,4.13
2018-03-15T00:27:29.636Z,4.14
2018-03-15T00:28:18.685Z,4.21
2018-03-15T00:29:07.733Z,4.10
2018-03-15T00:29:56.774Z,4.22
2018-03-15T00:30:46.110Z,4.16
2018-03-15T00:31:35.173Z,4.10
2018-03-15T00:32:24.241Z,4.01
2018-03-15T00:33:13.287Z,4.12
2018-03-15T00:34:02.338Z,4.12
2018-03-15T00:34:51.383Z,4.15
2018-03-15T00:35:40.432Z,4.32
2018-03-15T00:36:29.529Z,4.34
2018-03-15T00:37:18.571Z,4.34
2018-03-15T00:38:07.643Z,4.28
2018-03-15T00:38:56.687Z,4.26
2018-03-15T00:39:45.734Z,3.91
2018-03-15T00:40:34.809Z,3.78
2018-03-15T00:41:23.856Z,3.65
2018-03-15T00:42:13.005Z,3.66
2018-03-15T00:43:02.054Z,3.50
2018-03-15T00:43:51.104Z,3.41
2018-03-15T00:44:40.153Z,3.50
2018-03-15T00:45:29.211Z,3.61
2018-03-15T00:46:18.252Z,3.74
2018-03-15T00:47:07.300Z,3.74
2018-03-15T00:47:56.401Z,3.68
2018-03-15T00:48:45.457Z,3.59
2018-03-15T00:49:34.499Z,3.71
2018-03-15T00:50:23.773Z,3.68
2018-03-15T00:51:12.822Z,3.74
2018-03-15T00:52:01.874Z,3.83
2018-03-15T00:52:50.918Z,3.74
2018-03-15T00:53:40.510Z,3.52
2018-03-15T00:54:29.551Z,3.48
2018-03-15T00:55:18.600Z,3.53
2018-03-15T00:56:07.652Z,3.61
2018-03-15T00:56:56.718Z,3.75
2018-03-15T00:57:45.759Z,3.81
2018-03-15T00:58:34.800Z,3.93
2018-03-15T00:59:23.980Z,3.90
2018-03-15T01:00:13.046Z,3.95
2018-03-15T01:01:02.118Z,4.05
2018-03-15T01:01:51.179Z,4.14
2018-03-15T01:02:40.214Z,4.15
2018-03-15T01:03:29.266Z,4.19
2018-03-15T01:04:18.311Z,4.19
2018-03-15T01:05:07.531Z,4.24
2018-03-15T01:05:56.599Z,4.18
2018-03-15T01:06:45.642Z,4.25
2018-03-15T01:07:34.697Z,4.22
2018-03-15T01:08:23.742Z,4.19
2018-03-15T01:09:12.791Z,4.26
2018-03-15T01:10:01.832Z,4.25
2018-03-15T01:10:50.927Z,4.25
2018-03-15T01:11:39.987Z,4.29
2018-03-15T01:12:29.064Z,4.32
2018-03-15T01:13:18.108Z,4.33
2018-03-15T01:14:07.173Z,4.38
2018-03-15T01:14:56.430Z,4.34
2018-03-15T01:15:45.476Z,4.33
2018-03-15T01:16:34.613Z,4.24
2018-03-15T01:17:23.652Z,4.24
2018-03-15T01:18:12.702Z,4.27
2018-03-15T01:19:01.750Z,4.25
2018-03-15T01:19:50.811Z,4.22
2018-03-15T01:20:39.860Z,4.18
2018-03-15T01:21:28.902Z,4.19
2018-03-15T01:22:18.421Z,4.20
2018-03-15T01:23:07.469Z,4.14
2018-03-15T01:23:56.519Z,4.12
2018-03-15T01:24:45.912Z,4.14
2018-03-15T01:25:34.951Z,4.14
2018-03-15T01:26:24.001Z,4.19
2018-03-15T01:27:13.052Z,4.23
2018-03-15T01:28:03.102Z,4.15
2018-03-15T01:28:52.142Z,4.15
2018-03-15T01:29:41.190Z,4.06
2018-03-15T01:30:30.581Z,4.02
2018-03-15T01:31:19.635Z,4.07
2018-03-15T01:32:08.689Z,4.09
2018-03-15T01:32:57.748Z,4.07
2018-03-15T01:33:46.840Z,4.08
2018-03-15T01:34:35.900Z,4.09
2018-03-15T01:35:25.480Z,4.13
2018-03-15T01:36:14.519Z,4.19
2018-03-15T01:37:03.563Z,4.14
2018-03-15T01:37:52.612Z,4.06
2018-03-15T01:38:41.663Z,4.07
2018-03-15T01:39:30.710Z,4.07
2018-03-15T01:40:19.771Z,4.01
2018-03-15T01:41:08.848Z,3.95
2018-03-15T01:41:57.949Z,3.86
2018-03-15T01:42:47.011Z,3.82
2018-03-15T01:43:36.057Z,3.81
2018-03-15T01:44:25.104Z,3.74
2018-03-15T01:45:14.148Z,3.71
2018-03-15T01:46:03.198Z,3.74
2018-03-15T01:46:52.302Z,3.75
2018-03-15T01:47:41.356Z,3.70
2018-03-15T01:48:30.417Z,3.68
2018-03-15T01:49:19.480Z,3.67
2018-03-15T01:50:08.534Z,3.68
2018-03-15T01:50:57.577Z,3.71
2018-03-15T01:51:46.615Z,3.82
2018-03-15T01:52:35.757Z,3.86
2018-03-15T01:53:24.803Z,3.84
2018-03-15T01:54:13.848Z,3.89
2018-03-15T01:55:02.890Z,3.90
2018-03-15T01:55:51.935Z,3.84
2018-03-15T01:56:40.981Z,3.87
2018-03-15T01:57:30.033Z,3.87
2018-03-15T01:58:19.118Z,3.83
2018-03-15T01:59:08.174Z,3.76
2018-03-15T01:59:57.233Z,3.67
2018-03-15T02:00:46.293Z,3.42
2018-03-15T02:01:35.359Z,3.49
2018-03-15T02:02:24.392Z,3.47
2018-03-15T02:03:13.444Z,3.29
2018-03-15T02:04:02.535Z,3.22
2018-03-15T02:04:51.579Z,3.40
2018-03-15T02:05:40.637Z,3.44
2018-03-15T02:06:29.699Z,3.43
2018-03-15T02:07:18.751Z,3.53
2018-03-15T02:08:07.852Z,3.51
2018-03-15T02:08:57.116Z,3.50
2018-03-15T02:09:46.678Z,3.47
2018-03-15T02:10:35.727Z,3.36
2018-03-15T02:11:24.763Z,3.26
2018-03-15T02:12:13.841Z,3.17
2018-03-15T02:13:02.879Z,3.12
2018-03-15T02:13:51.923Z,3.17
2018-03-15T02:14:40.982Z,3.35
2018-03-15T02:15:30.567Z,3.31
2018-03-15T02:16:19.638Z,3.32
2018-03-15T02:17:08.683Z,3.39
2018-03-15T02:17:57.727Z,3.30
2018-03-15T02:18:46.799Z,3.37
2018-03-15T02:19:35.848Z,3.46
2018-03-15T02:20:24.900Z,3.39
2018-03-15T02:21:13.952Z,3.35
2018-03-15T02:22:03.090Z,3.36
2018-03-15T02:22:52.129Z,3.33
2018-03-15T02:23:41.178Z,3.30
2018-03-15T02:24:30.286Z,3.30
2018-03-15T02:25:19.330Z,3.29
2018-03-15T02:26:08.386Z,3.30
2018-03-15T02:26:57.428Z,3.32
2018-03-15T02:27:46.471Z,3.21
2018-03-15T02:28:35.506Z,3.14
2018-03-15T02:29:24.548Z,3.12
2018-03-15T02:30:13.644Z,3.11
2018-03-15T02:31:02.684Z,3.09
2018-03-15T02:31:51.747Z,3.11
2018-03-15T02:32:41.003Z,3.06
2018-03-15T02:33:30.053Z,3.05
2018-03-15T02:34:19.211Z,3.03
2018-03-15T02:35:08.251Z,2.88
2018-03-15T02:35:59.958Z,2.77
2018-03-15T02:36:49.001Z,2.85
2018-03-15T02:37:38.045Z,2.86
2018-03-15T02:38:27.093Z,2.86
2018-03-15T02:39:16.129Z,2.98
2018-03-15T02:40:05.757Z,3.08
2018-03-15T02:40:54.816Z,2.97
2018-03-15T02:41:43.875Z,2.71
2018-03-15T02:42:32.943Z,2.61
2018-03-15T02:43:21.995Z,2.77
2018-03-15T02:44:11.062Z,2.81
2018-03-15T02:45:00.119Z,2.90
2018-03-15T02:45:49.250Z,2.99
2018-03-15T02:46:38.300Z,3.07
2018-03-15T02:47:27.611Z,3.05
2018-03-15T02:48:16.666Z,3.06
2018-03-15T02:49:05.809Z,3.07
2018-03-15T02:49:54.842Z,3.10
2018-03-15T02:50:43.893Z,3.03
2018-03-15T02:51:32.943Z,3.07
2018-03-15T02:52:21.992Z,3.01
2018-03-15T02:53:11.044Z,3.02
2018-03-15T02:54:00.097Z,3.01
2018-03-15T02:54:49.308Z,3.02
2018-03-15T02:55:38.369Z,2.99
2018-03-15T02:56:27.421Z,2.96
2018-03-15T02:57:16.483Z,2.91
2018-03-15T02:58:05.527Z,2.93
2018-03-15T02:58:54.594Z,2.91
2018-03-15T02:59:43.650Z,2.88
2018-03-15T03:00:33.039Z,2.80
2018-03-15T03:01:22.171Z,2.85
2018-03-15T03:02:11.210Z,2.91
2018-03-15T03:03:00.259Z,2.91
2018-03-15T03:03:49.291Z,2.93
2018-03-15T03:04:38.319Z,2.93
2018-03-15T03:05:27.373Z,2.88
2018-03-15T03:06:16.420Z,2.75
2018-03-15T03:07:05.507Z,2.24
2018-03-15T03:07:54.558Z,2.02
2018-03-15T03:08:43.619Z,2.08
2018-03-15T03:09:32.674Z,2.17
2018-03-15T03:10:21.725Z,2.31
2018-03-15T03:11:10.762Z,2.36
2018-03-15T03:12:00.021Z,2.34
2018-03-15T03:12:49.135Z,2.31
2018-03-15T03:13:38.193Z,2.34
2018-03-15T03:14:27.244Z,2.42
2018-03-15T03:15:16.293Z,2.46
2018-03-15T03:16:05.361Z,2.40
2018-03-15T03:16:54.399Z,2.46
2018-03-15T03:17:43.699Z,2.48
2018-03-15T03:18:32.747Z,2.44
2018-03-15T03:19:21.823Z,2.50
2018-03-15T03:20:10.867Z,2.52
2018-03-15T03:21:00.013Z,2.53
2018-03-15T03:21:49.061Z,2.37
2018-03-15T03:22:38.128Z,2.15
2018-03-15T03:23:27.196Z,2.23
2018-03-15T03:24:16.246Z,2.31
2018-03-15T03:25:05.291Z,2.37
2018-03-15T03:25:54.346Z,2.39
2018-03-15T03:26:43.604Z,2.47
2018-03-15T03:27:32.648Z,2.38
2018-03-15T03:28:21.693Z,2.41
2018-03-15T03:29:10.739Z,2.36
2018-03-15T03:29:59.787Z,2.31
2018-03-15T03:30:48.845Z,2.34
2018-03-15T03:31:37.895Z,2.35
2018-03-15T03:32:26.990Z,2.37
2018-03-15T03:33:16.036Z,2.55
2018-03-15T03:34:05.085Z,2.59
2018-03-15T03:34:54.135Z,2.57
2018-03-15T03:35:43.200Z,2.58
2018-03-15T03:36:32.255Z,2.56
2018-03-15T03:37:21.313Z,2.49
2018-03-15T03:38:10.447Z,2.36
2018-03-15T03:38:59.488Z,2.41
2018-03-15T03:39:48.567Z,2.14
2018-03-15T03:40:37.608Z,2.00
2018-03-15T03:41:26.662Z,2.05
2018-03-15T03:42:15.715Z,2.08
2018-03-15T03:43:04.782Z,2.12
2018-03-15T03:43:53.878Z,2.19
2018-03-15T03:44:42.928Z,2.22
2018-03-15T03:45:31.967Z,2.28
2018-03-15T03:46:21.007Z,2.27
2018-03-15T03:47:10.053Z,2.34
2018-03-15T03:47:59.114Z,2.13
2018-03-15T03:48:48.162Z,2.14
2018-03-15T03:49:37.504Z,2.11
2018-03-15T03:50:26.551Z,2.13
2018-03-15T03:51:15.622Z,2.18
2018-03-15T03:52:04.671Z,2.10
2018-03-15T03:52:53.736Z,2.14
2018-03-15T03:53:42.851Z,2.16
2018-03-15T03:54:31.891Z,2.23
2018-03-15T03:55:21.005Z,2.19
2018-03-15T03:56:10.056Z,2.22
2018-03-15T03:56:59.094Z,2.15
2018-03-15T03:57:48.147Z,2.13
2018-03-15T03:58:37.197Z,2.10
2018-03-15T03:59:26.261Z,2.17
2018-03-15T04:00:15.296Z,2.05
2018-03-15T04:01:04.445Z,1.79
2018-03-15T04:01:53.491Z,1.74
2018-03-15T04:02:42.545Z,1.81
2018-03-15T04:03:31.584Z,1.85
2018-03-15T04:04:20.625Z,1.94
2018-03-15T04:05:09.707Z,1.91
2018-03-15T04:05:58.747Z,1.96
2018-03-15T04:06:48.408Z,1.98
2018-03-15T04:07:37.448Z,2.04
2018-03-15T04:08:26.494Z,2.09
2018-03-15T04:09:15.570Z,2.08
2018-03-15T04:10:04.645Z,2.00
2018-03-15T04:10:53.685Z,1.89
2018-03-15T04:11:42.729Z,1.91
2018-03-15T04:12:31.763Z,1.86
2018-03-15T04:13:20.813Z,1.88
2018-03-15T04:14:09.856Z,1.90
2018-03-15T04:14:58.936Z,1.89
2018-03-15T04:15:48.013Z,1.91
2018-03-15T04:16:37.063Z,2.00
2018-03-15T04:17:26.103Z,2.10
2018-03-15T04:18:15.163Z,1.98
2018-03-15T04:19:04.222Z,1.85
2018-03-15T04:19:53.276Z,1.59
2018-03-15T04:20:42.404Z,1.64
2018-03-15T04:21:31.467Z,1.61
2018-03-15T04:22:20.520Z,1.64
2018-03-15T04:23:09.574Z,1.65
2018-03-15T04:23:58.719Z,1.53
2018-03-15T04:24:47.762Z,1.44
2018-03-15T04:25:36.841Z,1.40
2018-03-15T04:26:25.883Z,1.56
2018-03-15T04:27:14.918Z,1.50
2018-03-15T04:28:03.958Z,1.39
2018-03-15T04:28:53.006Z,1.53
2018-03-15T04:29:42.090Z,1.57
2018-03-15T04:30:31.131Z,1.59
2018-03-15T04:31:20.191Z,1.54
2018-03-15T04:32:09.238Z,1.29
2018-03-15T04:32:58.279Z,1.10
2018-03-15T04:33:47.325Z,1.10
2018-03-15T04:34:36.372Z,1.08
2018-03-15T04:35:25.818Z,0.96
2018-03-15T04:36:14.864Z,0.91
2018-03-15T04:37:03.920Z,0.96
2018-03-15T04:37:52.963Z,1.09
2018-03-15T04:38:42.006Z,0.99
2018-03-15T04:39:31.046Z,0.92
2018-03-15T04:40:20.662Z,0.85
2018-03-15T04:41:09.710Z,0.78
2018-03-15T04:41:58.755Z,0.77
2018-03-15T04:42:47.801Z,0.88
2018-03-15T04:43:36.839Z,0.94
2018-03-15T04:44:25.879Z,1.04
2018-03-15T04:45:14.933Z,1.15
2018-03-15T04:46:04.047Z,1.27
2018-03-15T04:46:53.083Z,1.37
2018-03-15T04:47:42.146Z,1.40
2018-03-15T04:48:31.199Z,1.50
2018-03-15T04:49:20.244Z,1.55
2018-03-15T04:50:09.296Z,1.62
2018-03-15T04:50:58.342Z,1.69
2018-03-15T04:51:47.641Z,2.01
2018-03-15T04:52:36.687Z,2.25
2018-03-15T04:53:25.731Z,2.40
2018-03-15T04:54:14.779Z,2.65
2018-03-15T04:55:03.885Z,2.84
2018-03-15T04:55:52.937Z,2.85
2018-03-15T04:56:42.001Z,2.78
2018-03-15T04:57:31.101Z,2.52
2018-03-15T04:58:20.149Z,2.38
2018-03-15T04:59:09.205Z,2.21
2018-03-15T04:59:58.264Z,2.09
2018-03-15T05:00:47.316Z,2.11
2018-03-15T05:01:36.377Z,2.14
2018-03-15T05:02:25.425Z,2.17
2018-03-15T05:03:14.575Z,2.16
2018-03-15T05:04:03.633Z,2.19
2018-03-15T05:04:52.704Z,2.13
2018-03-15T05:05:41.789Z,2.26
2018-03-15T05:06:30.938Z,2.22
2018-03-15T05:07:19.993Z,2.14
2018-03-15T05:08:09.048Z,2.21
2018-03-15T05:08:59.341Z,2.24
2018-03-15T05:09:48.461Z,2.22
2018-03-15T05:10:37.509Z,2.30
2018-03-15T05:11:26.560Z,2.42
2018-03-15T05:12:15.621Z,2.53
2018-03-15T05:13:04.677Z,2.65
2018-03-15T05:13:53.743Z,2.74
2018-03-15T05:14:42.801Z,2.82
2018-03-15T05:15:31.892Z,2.90
2018-03-15T05:16:20.952Z,2.98
2018-03-15T05:17:09.998Z,3.03
2018-03-15T05:17:59.061Z,3.08
2018-03-15T05:18:48.141Z,3.11
2018-03-15T05:19:37.187Z,3.18
2018-03-15T05:20:26.227Z,3.17
2018-03-15T05:21:15.367Z,3.07
2018-03-15T05:22:04.416Z,3.04
2018-03-15T05:22:53.466Z,2.78
2018-03-15T05:23:42.516Z,2.65
2018-03-15T05:24:31.581Z,2.65
2018-03-15T05:25:20.635Z,2.75
2018-03-15T05:26:09.680Z,2.84
2018-03-15T05:26:58.760Z,2.91
2018-03-15T05:27:47.814Z,2.96
2018-03-15T05:28:36.856Z,3.01
2018-03-15T05:29:25.904Z,3.15
2018-03-15T05:30:14.964Z,3.30
2018-03-15T05:31:04.049Z,3.39
2018-03-15T05:31:53.112Z,3.44
2018-03-15T05:32:42.216Z,3.48
2018-03-15T05:33:31.271Z,3.60
2018-03-15T05:34:20.366Z,3.67
2018-03-15T05:35:09.424Z,3.64
2018-03-15T05:35:58.484Z,3.73
2018-03-15T05:36:47.545Z,3.67
2018-03-15T05:37:36.594Z,3.68
2018-03-15T05:38:26.053Z,3.67
2018-03-15T05:39:15.104Z,3.56
2018-03-15T05:40:04.159Z,3.63
2018-03-15T05:40:56.111Z,3.62
2018-03-15T05:41:45.165Z,3.60
2018-03-15T05:42:34.209Z,3.67
2018-03-15T05:43:23.256Z,3.76
2018-03-15T05:44:12.306Z,3.77
2018-03-15T05:45:01.365Z,3.78
2018-03-15T05:45:50.416Z,3.71
2018-03-15T05:46:39.510Z,3.66
2018-03-15T05:47:28.565Z,3.66
2018-03-15T05:48:17.608Z,3.66
2018-03-15T05:49:06.672Z,3.72
2018-03-15T05:49:55.737Z,3.81
2018-03-15T05:50:44.803Z,3.90
2018-03-15T05:51:33.869Z,4.03
2018-03-15T05:52:22.969Z,4.03
2018-03-15T05:53:12.013Z,4.10
2018-03-15T05:54:01.047Z,4.18
2018-03-15T05:54:50.090Z,4.36
2018-03-15T05:55:39.423Z,4.39
2018-03-15T05:56:28.471Z,4.33
2018-03-15T05:57:17.638Z,4.00
2018-03-15T05:58:06.686Z,3.94
2018-03-15T05:58:55.749Z,3.98
2018-03-15T05:59:44.797Z,3.94
2018-03-15T06:00:33.856Z,3.78
2018-03-15T06:01:22.906Z,3.87
2018-03-15T06:02:11.956Z,3.75
2018-03-15T06:03:01.342Z,3.74
2018-03-15T06:03:50.395Z,3.62
2018-03-15T06:04:39.454Z,3.43
2018-03-15T06:05:28.506Z,3.38
2018-03-15T06:06:17.572Z,3.25
2018-03-15T06:07:06.637Z,3.29
2018-03-15T06:07:55.716Z,3.38
2018-03-15T06:08:45.014Z,3.45
2018-03-15T06:09:34.068Z,3.46
2018-03-15T06:10:23.146Z,3.54
2018-03-15T06:11:12.296Z,3.74
2018-03-15T06:12:01.364Z,3.91
2018-03-15T06:12:50.411Z,4.11
2018-03-15T06:13:39.514Z,4.27
2018-03-15T06:14:28.859Z,4.28
2018-03-15T06:15:17.924Z,4.37
2018-03-15T06:16:06.987Z,4.29
2018-03-15T06:16:56.100Z,4.18
2018-03-15T06:17:45.154Z,4.19
2018-03-15T06:18:34.195Z,4.06
2018-03-15T06:19:23.249Z,4.00
2018-03-15T06:20:12.806Z,4.12
2018-03-15T06:21:01.864Z,4.19
2018-03-15T06:21:50.911Z,4.30
2018-03-15T06:22:40.019Z,4.53
2018-03-15T06:23:29.077Z,4.72
2018-03-15T06:24:18.119Z,4.73
2018-03-15T06:25:07.188Z,4.83
2018-03-15T06:25:56.468Z,4.88
2018-03-15T06:26:45.572Z,5.06
2018-03-15T06:27:34.618Z,5.27
2018-03-15T06:28:23.671Z,5.50
2018-03-15T06:29:12.725Z,5.67
2018-03-15T06:30:01.790Z,5.88
2018-03-15T06:30:50.831Z,6.00
2018-03-15T06:31:39.890Z,6.08
2018-03-15T06:32:29.024Z,6.24
2018-03-15T06:33:18.065Z,6.44
2018-03-15T06:34:07.148Z,6.66
2018-03-15T06:34:56.187Z,6.87
2018-03-15T06:35:45.232Z,6.78
2018-03-15T06:36:34.277Z,6.87
2018-03-15T06:37:23.333Z,7.02
2018-03-15T06:38:12.439Z,6.97
2018-03-15T06:39:01.490Z,7.22
2018-03-15T06:39:50.552Z,7.31
2018-03-15T06:40:39.603Z,7.46
2018-03-15T06:41:28.644Z,7.56
2018-03-15T06:42:17.687Z,7.80
2018-03-15T06:43:06.729Z,8.00
2018-03-15T06:43:55.894Z,8.05
2018-03-15T06:44:44.932Z,8.24
2018-03-15T06:45:33.987Z,8.30
2018-03-15T06:46:23.042Z,8.37
2018-03-15T06:47:12.091Z,8.38
2018-03-15T06:48:01.369Z,8.51
2018-03-15T06:48:50.412Z,8.51
2018-03-15T06:49:39.506Z,8.41
2018-03-15T06:50:28.565Z,8.40
2018-03-15T06:51:17.613Z,8.41
2018-03-15T06:52:06.678Z,8.45
2018-03-15T06:52:55.750Z,8.55
2018-03-15T06:53:44.841Z,8.63
2018-03-15T06:54:33.887Z,8.83
2018-03-15T06:55:23.044Z,8.92
2018-03-15T06:56:12.100Z,8.82
2018-03-15T06:57:01.154Z,8.91
2018-03-15T06:57:50.200Z,8.85
2018-03-15T06:58:39.252Z,8.61
2018-03-15T06:59:28.304Z,8.63
2018-03-15T07:00:17.369Z,8.66
2018-03-15T07:01:06.471Z,8.57
2018-03-15T07:01:55.526Z,8.18
2018-03-15T07:02:44.578Z,8.08
2018-03-15T07:03:33.616Z,8.11
2018-03-15T07:04:22.725Z,8.05
2018-03-15T07:05:11.765Z,7.90
2018-03-15T07:06:00.820Z,7.79
2018-03-15T07:06:49.918Z,7.91
2018-03-15T07:07:38.950Z,7.85
2018-03-15T07:08:27.997Z,7.88
2018-03-15T07:09:17.028Z,7.93
2018-03-15T07:10:06.207Z,7.91
2018-03-15T07:10:55.454Z,7.90
2018-03-15T07:11:44.503Z,7.81
2018-03-15T07:12:33.564Z,7.94
2018-03-15T07:13:22.617Z,8.04
2018-03-15T07:14:11.674Z,8.01
2018-03-15T07:15:00.724Z,7.98
2018-03-15T07:15:49.803Z,8.01
2018-03-15T07:16:38.846Z,8.10
2018-03-15T07:17:27.912Z,8.27
2018-03-15T07:18:16.962Z,8.36
2018-03-15T07:19:06.012Z,8.51
2018-03-15T07:19:55.067Z,8.52
2018-03-15T07:20:44.123Z,8.48
2018-03-15T07:21:33.942Z,8.35
2018-03-15T07:22:22.983Z,8.46
2018-03-15T07:23:12.024Z,8.43
2018-03-15T07:24:01.092Z,8.48
2018-03-15T07:24:50.159Z,8.57
2018-03-15T07:25:39.302Z,8.63
2018-03-15T07:26:28.365Z,8.67
2018-03-15T07:27:17.414Z,8.50
2018-03-15T07:28:06.461Z,8.45
2018-03-15T07:28:55.523Z,8.59
2018-03-15T07:29:44.571Z,8.69
2018-03-15T07:30:33.636Z,8.75
2018-03-15T07:31:22.722Z,8.65
2018-03-15T07:32:11.778Z,8.74
2018-03-15T07:33:00.847Z,8.87
2018-03-15T07:33:49.888Z,9.06
2018-03-15T07:34:38.938Z,9.25
2018-03-15T07:35:27.976Z,9.48
2018-03-15T07:36:17.039Z,9.62
2018-03-15T07:37:06.377Z,9.70
2018-03-15T07:37:55.423Z,9.70
2018-03-15T07:38:44.462Z,9.83
2018-03-15T07:39:33.521Z,9.69
2018-03-15T07:40:22.559Z,9.71
2018-03-15T07:41:11.597Z,9.68
2018-03-15T07:42:00.692Z,9.68
2018-03-15T07:42:49.746Z,9.37
2018-03-15T07:43:38.787Z,9.30
2018-03-15T07:44:27.850Z,9.16
2018-03-15T07:45:16.900Z,9.04
2018-03-15T07:46:05.996Z,9.15
2018-03-15T07:46:55.156Z,9.04
2018-03-15T07:47:44.205Z,9.07
2018-03-15T07:48:33.301Z,9.00
2018-03-15T07:49:22.331Z,9.17
2018-03-15T07:50:11.361Z,9.34
2018-03-15T07:51:00.772Z,9.46
2018-03-15T07:51:49.793Z,9.50
2018-03-15T07:52:39.083Z,9.53
2018-03-15T07:53:28.107Z,9.53
2018-03-15T07:54:17.140Z,9.46
2018-03-15T07:55:06.176Z,9.74
2018-03-15T07:55:55.211Z,9.81
2018-03-15T07:56:44.259Z,9.99
2018-03-15T07:57:33.309Z,10.18
2018-03-15T07:58:22.396Z,10.33
2018-03-15T07:59:11.447Z,10.51
2018-03-15T08:00:00.493Z,10.60
2018-03-15T08:00:49.561Z,10.61
2018-03-15T08:01:44.423Z,10.62
2018-03-15T08:02:33.487Z,10.59
2018-03-15T08:03:22.515Z,10.76
2018-03-15T08:04:11.660Z,10.66
2018-03-15T08:05:00.705Z,10.73
2018-03-15T08:05:49.738Z,10.95
2018-03-15T08:06:38.797Z,11.04
2018-03-15T08:07:27.851Z,11.09
2018-03-15T08:08:16.896Z,11.31
2018-03-15T08:09:05.946Z,11.49
2018-03-15T08:09:55.088Z,11.47
2018-03-15T08:10:44.154Z,11.59
2018-03-15T08:11:33.267Z,11.64
2018-03-15T08:12:22.304Z,11.80
2018-03-15T08:13:11.350Z,11.82
2018-03-15T08:14:00.394Z,11.78
2018-03-15T08:14:49.467Z,11.77
2018-03-15T08:15:38.723Z,11.83
2018-03-15T08:16:27.773Z,11.85
2018-03-15T08:17:16.897Z,11.95
2018-03-15T08:18:05.960Z,11.78
2018-03-15T08:18:54.994Z,11.90
2018-03-15T08:19:44.137Z,11.60
2018-03-15T08:20:33.208Z,11.52
2018-03-15T08:21:22.264Z,11.37
2018-03-15T08:22:11.302Z,11.38
2018-03-15T08:23:00.362Z,11.46
2018-03-15T08:23:49.398Z,11.70
2018-03-15T08:24:38.442Z,11.87
2018-03-15T08:25:27.591Z,12.03
2018-03-15T08:26:16.645Z,11.79
2018-03-15T08:27:05.773Z,11.37
2018-03-15T08:27:54.806Z,11.51
2018-03-15T08:28:46.484Z,11.68
2018-03-15T08:29:35.522Z,11.91
2018-03-15T08:30:24.555Z,11.87
2018-03-15T08:31:13.588Z,11.96
2018-03-15T08:32:02.693Z,12.15
2018-03-15T08:32:51.736Z,12.37
2018-03-15T08:33:40.780Z,12.24
2018-03-15T08:34:29.895Z,11.84
2018-03-15T08:35:18.942Z,11.89
2018-03-15T08:36:07.987Z,12.11
2018-03-15T08:36:57.031Z,12.30
2018-03-15T08:37:46.103Z,12.39
2018-03-15T08:38:35.198Z,12.24
2018-03-15T08:39:24.265Z,12.13
2018-03-15T08:40:13.346Z,11.99
2018-03-15T08:41:02.375Z,11.73
2018-03-15T08:41:51.428Z,11.76
2018-03-15T08:42:40.580Z,11.84
2018-03-15T08:43:29.610Z,11.73
2018-03-15T08:44:18.651Z,11.93
2018-03-15T08:45:07.720Z,11.90
2018-03-15T08:45:56.760Z,11.88
2018-03-15T08:46:45.996Z,11.68
2018-03-15T08:47:35.092Z,11.62
2018-03-15T08:48:24.135Z,11.61
2018-03-15T08:49:13.190Z,11.83
2018-03-15T08:50:02.245Z,12.03
2018-03-15T08:50:51.300Z,11.96
2018-03-15T08:51:40.371Z,11.91
2018-03-15T08:52:29.468Z,11.78
2018-03-15T08:53:18.505Z,11.72
2018-03-15T08:54:07.561Z,11.81
2018-03-15T08:54:56.610Z,11.89
2018-03-15T08:55:45.749Z,11.98
2018-03-15T08:56:34.857Z,12.16
2018-03-15T08:57:23.909Z,12.25
2018-03-15T08:58:12.950Z,11.92
2018-03-15T08:59:02.018Z,11.95
2018-03-15T08:59:51.061Z,12.08
2018-03-15T09:00:40.106Z,12.07
2018-03-15T09:01:29.257Z,11.97
2018-03-15T09:02:18.287Z,11.66
2018-03-15T09:03:07.341Z,11.80
2018-03-15T09:03:56.376Z,11.80
2018-03-15T09:04:45.417Z,11.80
2018-03-15T09:05:34.450Z,11.87
2018-03-15T09:06:23.546Z,11.86
2018-03-15T09:07:12.749Z,11.84
2018-03-15T09:08:01.869Z,11.96
2018-03-15T09:08:50.923Z,12.08
2018-03-15T09:09:39.971Z,12.07
2018-03-15T09:10:29.016Z,12.01
2018-03-15T09:11:18.065Z,11.88
2018-03-15T09:12:07.487Z,11.99
2018-03-15T09:12:56.525Z,11.99
2018-03-15T09:13:45.576Z,12.10
2018-03-15T09:14:34.643Z,12.22
2018-03-15T09:15:23.729Z,12.23
2018-03-15T09:16:12.865Z,12.12
2018-03-15T09:17:01.874Z,12.21
2018-03-15T09:17:51.259Z,12.07
2018-03-15T09:18:40.310Z,12.14
2018-03-15T09:19:29.353Z,12.13
2018-03-15T09:20:18.392Z,12.15
2018-03-15T09:21:07.462Z,12.09
2018-03-15T09:21:56.513Z,12.02
2018-03-15T09:22:45.607Z,12.00
2018-03-15T09:23:34.702Z,12.07
2018-03-15T09:24:23.734Z,12.02
2018-03-15T09:25:12.829Z,12.06
2018-03-15T09:26:01.848Z,12.12
2018-03-15T09:26:50.954Z,12.04
2018-03-15T09:27:39.988Z,12.04
2018-03-15T09:28:29.021Z,12.26
2018-03-15T09:29:18.081Z,12.37
2018-03-15T09:30:07.123Z,12.53
2018-03-15T09:30:56.252Z,12.56
2018-03-15T09:31:45.310Z,12.59
2018-03-15T09:32:34.367Z,12.60
2018-03-15T09:33:23.413Z,12.49
2018-03-15T09:34:12.478Z,12.57
2018-03-15T09:35:02.015Z,12.49
2018-03-15T09:35:51.062Z,12.35
2018-03-15T09:36:40.281Z,12.05
2018-03-15T09:37:29.375Z,12.08
2018-03-15T09:38:18.495Z,11.98
2018-03-15T09:39:07.570Z,12.18
2018-03-15T09:39:56.633Z,12.35
2018-03-15T09:40:45.693Z,12.62
2018-03-15T09:41:34.969Z,12.77
2018-03-15T09:42:24.110Z,12.84
2018-03-15T09:43:13.268Z,12.68
2018-03-15T09:44:02.435Z,12.85
2018-03-15T09:44:51.574Z,12.82
2018-03-15T09:45:40.619Z,12.95
2018-03-15T09:46:29.679Z,13.13
2018-03-15T09:47:18.757Z,13.29
2018-03-15T09:48:07.840Z,13.37
2018-03-15T09:48:56.896Z,13.25
2018-03-15T09:49:46.034Z,13.25
2018-03-15T09:50:35.097Z,13.21
2018-03-15T09:51:24.216Z,13.09
2018-03-15T09:52:13.306Z,13.20
2018-03-15T09:53:02.493Z,13.12
2018-03-15T09:53:51.546Z,13.08
2018-03-15T09:54:40.601Z,13.17
2018-03-15T09:55:29.664Z,13.21
2018-03-15T09:56:18.711Z,13.38
2018-03-15T09:57:08.120Z,13.41
2018-03-15T09:57:57.315Z,13.57
2018-03-15T09:58:46.390Z,13.65
2018-03-15T09:59:35.457Z,13.64
2018-03-15T10:00:24.525Z,13.57
2018-03-15T10:01:13.613Z,13.52
2018-03-15T10:02:02.735Z,13.19
2018-03-15T10:02:51.814Z,13.38
2018-03-15T10:03:41.072Z,13.46
2018-03-15T10:04:30.309Z,13.50
2018-03-15T10:05:19.417Z,13.56
2018-03-15T10:06:08.527Z,13.59
2018-03-15T10:06:57.595Z,13.56
2018-03-15T10:07:46.680Z,13.37
2018-03-15T10:08:35.798Z,13.06
2018-03-15T10:09:24.915Z,13.19
2018-03-15T10:10:14.080Z,13.29
2018-03-15T10:11:03.146Z,13.43
2018-03-15T10:11:52.350Z,13.52
2018-03-15T10:12:41.514Z,13.46
2018-03-15T10:13:30.575Z,13.69
2018-03-15T10:14:19.792Z,13.76
2018-03-15T10:15:08.855Z,13.89
2018-03-15T10:15:58.177Z,13.84
2018-03-15T10:16:47.232Z,13.93
2018-03-15T10:17:36.300Z,14.09
2018-03-15T10:18:26.392Z,14.27
2018-03-15T10:19:15.444Z,14.37
2018-03-15T10:20:04.523Z,14.34
2018-03-15T10:20:53.762Z,14.24
2018-03-15T10:21:42.835Z,14.30
2018-03-15T10:22:31.949Z,14.32
2018-03-15T10:23:21.096Z,14.19
2018-03-15T10:24:10.219Z,13.96
2018-03-15T10:24:59.283Z,14.00
2018-03-15T10:25:48.593Z,13.93
2018-03-15T10:26:37.651Z,14.07
2018-03-15T10:27:26.941Z,14.17
2018-03-15T10:28:15.978Z,14.35
2018-03-15T10:29:05.048Z,14.31
2018-03-15T10:29:54.603Z,14.12
2018-03-15T10:30:43.824Z,14.04
2018-03-15T10:31:32.917Z,14.28
2018-03-15T10:32:21.988Z,14.28
2018-03-15T10:33:16.658Z,14.41
2018-03-15T10:34:05.785Z,14.47
2018-03-15T10:35:00.379Z,14.56
2018-03-15T10:35:52.734Z,14.48
2018-03-15T10:36:41.832Z,14.50
2018-03-15T10:37:36.548Z,14.46
2018-03-15T10:38:25.600Z,14.18
2018-03-15T10:39:14.693Z,14.24
2018-03-15T10:40:03.825Z,14.25
2018-03-15T10:40:52.916Z,14.29
2018-03-15T10:41:42.038Z,14.39
2018-03-15T10:42:31.293Z,14.50
2018-03-15T10:43:20.384Z,14.43
2018-03-15T10:44:09.481Z,14.42
2018-03-15T10:44:58.546Z,14.24
2018-03-15T10:45:47.627Z,14.17
2018-03-15T10:46:36.694Z,13.94
2018-03-15T10:47:25.989Z,14.13
2018-03-15T10:48:15.055Z,14.36